RYR22J LGAV-LGSK
Flight info
| Callsign | RYR22J |
|---|---|
| Flight time | 0h 27m |
| Altitude | 14000 |
| Route | ROPOX M749 SIGFO |
| Aircraft | B38M/M-SDE1FGHILORVWXY/HB1 |
Departure
| Time | 2026-05-09 09:49 |
|---|---|
| Airport | Athens Eleftherios Venizelos International Airport (LGAV) |
Arrival
| Time | 2026-05-09 10:16 |
|---|---|
| Airport | Skiathos Island National Airport (LGSK) |
| Time | Latitude | Longitude | Altitude | Speed | Heading |
|---|---|---|---|---|---|
| 2026-05-09 09:22 | 37.93411 | 23.94663 | 296 ft | 0 kts | 307° |
| 2026-05-09 09:33 | 37.93410 | 23.94664 | 296 ft | 1 kts | 307° |
| 2026-05-09 09:33 | 37.93401 | 23.94679 | 296 ft | 2 kts | 307° |
| 2026-05-09 09:33 | 37.93391 | 23.94693 | 296 ft | 2 kts | 320° |
| 2026-05-09 09:34 | 37.93379 | 23.94704 | 296 ft | 2 kts | 333° |
| 2026-05-09 09:34 | 37.93366 | 23.94711 | 295 ft | 2 kts | 346° |
| 2026-05-09 09:34 | 37.93351 | 23.94714 | 295 ft | 2 kts | 360° |
| 2026-05-09 09:36 | 37.93308 | 23.94694 | 293 ft | 0 kts | 38° |
| 2026-05-09 09:36 | 37.93333 | 23.94723 | 295 ft | 9 kts | 56° |
| 2026-05-09 09:37 | 37.93317 | 23.94807 | 294 ft | 9 kts | 91° |
| 2026-05-09 09:37 | 37.93386 | 23.94888 | 293 ft | 20 kts | 36° |
| 2026-05-09 09:37 | 37.93522 | 23.95017 | 291 ft | 28 kts | 37° |
| 2026-05-09 09:37 | 37.93694 | 23.95182 | 285 ft | 34 kts | 37° |
| 2026-05-09 09:38 | 37.93861 | 23.95342 | 282 ft | 22 kts | 38° |
| 2026-05-09 09:38 | 37.93984 | 23.95458 | 283 ft | 21 kts | 36° |
| 2026-05-09 09:38 | 37.94103 | 23.95571 | 282 ft | 21 kts | 37° |
| 2026-05-09 09:38 | 37.94221 | 23.95682 | 284 ft | 19 kts | 36° |
| 2026-05-09 09:39 | 37.94319 | 23.95775 | 286 ft | 11 kts | 37° |
| 2026-05-09 09:39 | 37.94339 | 23.95793 | 286 ft | 6 kts | 37° |
| 2026-05-09 09:39 | 37.94366 | 23.95868 | 285 ft | 14 kts | 114° |
| 2026-05-09 09:39 | 37.94382 | 23.95978 | 286 ft | 14 kts | 37° |
| 2026-05-09 09:40 | 37.94442 | 23.96036 | 289 ft | 0 kts | 38° |
| 2026-05-09 09:44 | 37.94442 | 23.96037 | 289 ft | 1 kts | 37° |
| 2026-05-09 09:44 | 37.94482 | 23.96075 | 291 ft | 13 kts | 37° |
| 2026-05-09 09:45 | 37.94590 | 23.96176 | 293 ft | 21 kts | 37° |
| 2026-05-09 09:45 | 37.94704 | 23.96284 | 299 ft | 18 kts | 37° |
| 2026-05-09 09:45 | 37.94808 | 23.96384 | 300 ft | 19 kts | 37° |
| 2026-05-09 09:45 | 37.94920 | 23.96491 | 305 ft | 20 kts | 37° |
| 2026-05-09 09:46 | 37.95039 | 23.96603 | 311 ft | 22 kts | 37° |
| 2026-05-09 09:46 | 37.95170 | 23.96729 | 317 ft | 24 kts | 37° |
| 2026-05-09 09:46 | 37.95280 | 23.96836 | 326 ft | 14 kts | 47° |
| 2026-05-09 09:46 | 37.95277 | 23.96933 | 328 ft | 11 kts | 127° |
| 2026-05-09 09:47 | 37.95227 | 23.97016 | 330 ft | 10 kts | 131° |
| 2026-05-09 09:47 | 37.95167 | 23.97004 | 328 ft | 4 kts | 218° |
| 2026-05-09 09:47 | 37.95163 | 23.97000 | 328 ft | 0 kts | 218° |
| 2026-05-09 09:48 | 37.95128 | 23.96966 | 325 ft | 27 kts | 218° |
| 2026-05-09 09:48 | 37.94784 | 23.96637 | 301 ft | 97 kts | 217° |
| 2026-05-09 09:48 | 37.94070 | 23.95956 | 278 ft | 157 kts | 217° |
| 2026-05-09 09:48 | 37.93115 | 23.95067 | 558 ft | 180 kts | 216° |
| 2026-05-09 09:49 | 37.92081 | 23.94101 | 1151 ft | 189 kts | 219° |
| 2026-05-09 09:49 | 37.91275 | 23.92902 | 2103 ft | 176 kts | 243° |
| 2026-05-09 09:49 | 37.90950 | 23.91412 | 2609 ft | 190 kts | 264° |
| 2026-05-09 09:49 | 37.91045 | 23.89682 | 3052 ft | 205 kts | 278° |
| 2026-05-09 09:50 | 37.91456 | 23.87831 | 3295 ft | 232 kts | 287° |
| 2026-05-09 09:50 | 37.92131 | 23.86046 | 3751 ft | 248 kts | 310° |
| 2026-05-09 09:50 | 37.93629 | 23.84900 | 4467 ft | 262 kts | 343° |
| 2026-05-09 09:50 | 37.95468 | 23.84517 | 5107 ft | 274 kts | 351° |
| 2026-05-09 09:51 | 37.96880 | 23.84235 | 5687 ft | 278 kts | 347° |
| 2026-05-09 09:51 | 37.98713 | 23.83677 | 6460 ft | 281 kts | 343° |
| 2026-05-09 09:51 | 38.00592 | 23.82971 | 7262 ft | 284 kts | 341° |
| 2026-05-09 09:51 | 38.02460 | 23.82228 | 8043 ft | 286 kts | 341° |
| 2026-05-09 09:52 | 38.04356 | 23.81464 | 8816 ft | 289 kts | 341° |
| 2026-05-09 09:52 | 38.06265 | 23.80696 | 9567 ft | 292 kts | 341° |
| 2026-05-09 09:52 | 38.08194 | 23.79921 | 10290 ft | 295 kts | 341° |
| 2026-05-09 09:52 | 38.10217 | 23.79109 | 10465 ft | 319 kts | 342° |
| 2026-05-09 09:53 | 38.12363 | 23.78247 | 10638 ft | 339 kts | 342° |
| 2026-05-09 09:53 | 38.14639 | 23.77334 | 11214 ft | 345 kts | 342° |
| 2026-05-09 09:53 | 38.16934 | 23.76477 | 11840 ft | 349 kts | 347° |
| 2026-05-09 09:53 | 38.19317 | 23.75977 | 12476 ft | 352 kts | 352° |
| 2026-05-09 09:54 | 38.21726 | 23.75638 | 13076 ft | 355 kts | 353° |
| 2026-05-09 09:54 | 38.24173 | 23.75313 | 13663 ft | 359 kts | 353° |
| 2026-05-09 09:54 | 38.26638 | 23.74976 | 14034 ft | 362 kts | 353° |
| 2026-05-09 09:54 | 38.29158 | 23.74621 | 14047 ft | 371 kts | 353° |
| 2026-05-09 09:55 | 38.31715 | 23.74256 | 14046 ft | 372 kts | 353° |
| 2026-05-09 09:55 | 38.34277 | 23.73888 | 14047 ft | 371 kts | 353° |
| 2026-05-09 09:55 | 38.36822 | 23.73521 | 14047 ft | 370 kts | 353° |
| 2026-05-09 09:55 | 38.39353 | 23.73154 | 14047 ft | 371 kts | 353° |
| 2026-05-09 09:56 | 38.41897 | 23.72785 | 14047 ft | 371 kts | 353° |
| 2026-05-09 09:56 | 38.44481 | 23.72410 | 14047 ft | 371 kts | 353° |
| 2026-05-09 09:56 | 38.47028 | 23.72040 | 14047 ft | 371 kts | 353° |
| 2026-05-09 09:56 | 38.49571 | 23.71670 | 14047 ft | 371 kts | 353° |
| 2026-05-09 09:57 | 38.52147 | 23.71295 | 14047 ft | 371 kts | 353° |
| 2026-05-09 09:57 | 38.54709 | 23.70922 | 14047 ft | 371 kts | 353° |
| 2026-05-09 09:57 | 38.57219 | 23.70556 | 14047 ft | 371 kts | 353° |
| 2026-05-09 09:57 | 38.59777 | 23.70183 | 14043 ft | 370 kts | 353° |
| 2026-05-09 09:58 | 38.62311 | 23.69813 | 14038 ft | 369 kts | 353° |
| 2026-05-09 09:58 | 38.64854 | 23.69441 | 14034 ft | 369 kts | 353° |
| 2026-05-09 09:58 | 38.67381 | 23.69072 | 14019 ft | 367 kts | 353° |
| 2026-05-09 09:58 | 38.69883 | 23.68707 | 13803 ft | 352 kts | 353° |
| 2026-05-09 09:59 | 38.72258 | 23.68359 | 13415 ft | 343 kts | 353° |
| 2026-05-09 09:59 | 38.74590 | 23.68017 | 12913 ft | 338 kts | 353° |
| 2026-05-09 09:59 | 38.76915 | 23.67676 | 12395 ft | 334 kts | 353° |
| 2026-05-09 09:59 | 38.79213 | 23.67338 | 11886 ft | 334 kts | 353° |
| 2026-05-09 10:00 | 38.81515 | 23.67000 | 11376 ft | 335 kts | 353° |
| 2026-05-09 10:00 | 38.83824 | 23.66661 | 10851 ft | 331 kts | 353° |
| 2026-05-09 10:00 | 38.86100 | 23.66326 | 10392 ft | 325 kts | 353° |
| 2026-05-09 10:00 | 38.88280 | 23.66006 | 10225 ft | 311 kts | 353° |
| 2026-05-09 10:01 | 38.90378 | 23.65697 | 10134 ft | 296 kts | 353° |
| 2026-05-09 10:01 | 38.92370 | 23.65402 | 10060 ft | 283 kts | 353° |
| 2026-05-09 10:01 | 38.94282 | 23.65117 | 9978 ft | 276 kts | 353° |
| 2026-05-09 10:01 | 38.96254 | 23.64812 | 9603 ft | 287 kts | 353° |
| 2026-05-09 10:02 | 38.98207 | 23.64492 | 9190 ft | 287 kts | 353° |
| 2026-05-09 10:02 | 39.00189 | 23.64156 | 8829 ft | 285 kts | 353° |
| 2026-05-09 10:02 | 39.02156 | 23.63823 | 8471 ft | 283 kts | 354° |
| 2026-05-09 10:02 | 39.04087 | 23.63498 | 8117 ft | 281 kts | 352° |
| 2026-05-09 10:03 | 39.05967 | 23.62797 | 7448 ft | 285 kts | 339° |
| 2026-05-09 10:03 | 39.07776 | 23.61787 | 6591 ft | 291 kts | 337° |
| 2026-05-09 10:03 | 39.09629 | 23.60716 | 5761 ft | 293 kts | 337° |
| 2026-05-09 10:03 | 39.11475 | 23.59722 | 5137 ft | 288 kts | 344° |
| 2026-05-09 10:04 | 39.13446 | 23.59616 | 4723 ft | 281 kts | 14° |
| 2026-05-09 10:04 | 39.15258 | 23.60391 | 4508 ft | 270 kts | 21° |
| 2026-05-09 10:04 | 39.17058 | 23.60666 | 4444 ft | 258 kts | 349° |
| 2026-05-09 10:04 | 39.18568 | 23.59602 | 4447 ft | 253 kts | 311° |
| 2026-05-09 10:05 | 39.19319 | 23.57514 | 4468 ft | 262 kts | 275° |
| 2026-05-09 10:05 | 39.19014 | 23.55320 | 4453 ft | 252 kts | 238° |
| 2026-05-09 10:05 | 39.17726 | 23.53749 | 4490 ft | 257 kts | 207° |
| 2026-05-09 10:05 | 39.16266 | 23.52633 | 4487 ft | 236 kts | 213° |
| 2026-05-09 10:06 | 39.14977 | 23.51504 | 4456 ft | 213 kts | 209° |
| 2026-05-09 10:06 | 39.13693 | 23.50709 | 4412 ft | 199 kts | 196° |
| 2026-05-09 10:06 | 39.12356 | 23.50434 | 4252 ft | 190 kts | 178° |
| 2026-05-09 10:06 | 39.11079 | 23.50594 | 4075 ft | 183 kts | 169° |
| 2026-05-09 10:07 | 39.09833 | 23.50861 | 3990 ft | 176 kts | 169° |
| 2026-05-09 10:07 | 39.08636 | 23.51077 | 3724 ft | 175 kts | 171° |
| 2026-05-09 10:07 | 39.07405 | 23.51265 | 3241 ft | 184 kts | 172° |
| 2026-05-09 10:07 | 39.06123 | 23.51451 | 2850 ft | 185 kts | 172° |
| 2026-05-09 10:08 | 39.04860 | 23.51635 | 2645 ft | 175 kts | 172° |
| 2026-05-09 10:08 | 39.03695 | 23.51808 | 2461 ft | 167 kts | 170° |
| 2026-05-09 10:08 | 39.02580 | 23.52219 | 2119 ft | 168 kts | 157° |
| 2026-05-09 10:08 | 39.01502 | 23.52805 | 1998 ft | 171 kts | 155° |
| 2026-05-09 10:09 | 39.00388 | 23.53443 | 2004 ft | 178 kts | 155° |
| 2026-05-09 10:09 | 38.99256 | 23.54094 | 1982 ft | 176 kts | 155° |
| 2026-05-09 10:09 | 38.98127 | 23.54745 | 1992 ft | 177 kts | 156° |
| 2026-05-09 10:09 | 38.96928 | 23.54913 | 1968 ft | 179 kts | 196° |
| 2026-05-09 10:10 | 38.95956 | 23.53962 | 2001 ft | 183 kts | 239° |
| 2026-05-09 10:10 | 38.95739 | 23.52349 | 1993 ft | 187 kts | 283° |
| 2026-05-09 10:10 | 38.96254 | 23.50806 | 2013 ft | 187 kts | 299° |
| 2026-05-09 10:10 | 38.97006 | 23.49513 | 1946 ft | 177 kts | 322° |
| 2026-05-09 10:11 | 38.98048 | 23.48768 | 2004 ft | 171 kts | 336° |
| 2026-05-09 10:11 | 38.99154 | 23.48179 | 2005 ft | 173 kts | 338° |
| 2026-05-09 10:11 | 39.00271 | 23.47605 | 1987 ft | 172 kts | 338° |
| 2026-05-09 10:11 | 39.01378 | 23.47039 | 2007 ft | 170 kts | 338° |
| 2026-05-09 10:12 | 39.02491 | 23.46467 | 1991 ft | 171 kts | 338° |
| 2026-05-09 10:12 | 39.03551 | 23.45920 | 2013 ft | 159 kts | 338° |
| 2026-05-09 10:12 | 39.04585 | 23.45388 | 1983 ft | 157 kts | 339° |
| 2026-05-09 10:12 | 39.05644 | 23.45257 | 1980 ft | 155 kts | 9° |
| 2026-05-09 10:13 | 39.06721 | 23.45555 | 2008 ft | 158 kts | 15° |
| 2026-05-09 10:13 | 39.07780 | 23.45907 | 1980 ft | 156 kts | 16° |
| 2026-05-09 10:13 | 39.08816 | 23.46256 | 1994 ft | 156 kts | 16° |
| 2026-05-09 10:13 | 39.09888 | 23.46661 | 1753 ft | 159 kts | 20° |
| 2026-05-09 10:14 | 39.10912 | 23.47108 | 1408 ft | 156 kts | 21° |
| 2026-05-09 10:14 | 39.11917 | 23.47576 | 1098 ft | 153 kts | 21° |
| 2026-05-09 10:14 | 39.12884 | 23.48053 | 761 ft | 145 kts | 23° |
| 2026-05-09 10:14 | 39.13820 | 23.48552 | 537 ft | 145 kts | 25° |
| 2026-05-09 10:15 | 39.14756 | 23.49055 | 345 ft | 147 kts | 22° |
| 2026-05-09 10:15 | 39.15701 | 23.49494 | 212 ft | 143 kts | 20° |
| 2026-05-09 10:15 | 39.16656 | 23.49892 | 77 ft | 142 kts | 19° |
| 2026-05-09 10:15 | 39.17533 | 23.50287 | 51 ft | 111 kts | 18° |
| 2026-05-09 10:16 | 39.17889 | 23.50443 | 78 ft | 4 kts | 356° |
| 2026-05-09 10:16 | 39.17928 | 23.50408 | 85 ft | 9 kts | 273° |
| 2026-05-09 10:16 | 39.17895 | 23.50325 | 87 ft | 15 kts | 219° |
| 2026-05-09 10:16 | 39.17827 | 23.50290 | 81 ft | 6 kts | 199° |
| 2026-05-09 10:17 | 39.17787 | 23.50261 | 78 ft | 5 kts | 261° |
| 2026-05-09 10:17 | 39.17791 | 23.50238 | 81 ft | 3 kts | 290° |
| 2026-05-09 10:17 | 39.17798 | 23.50215 | 83 ft | 0 kts | 290° |
| 2026-05-09 10:18 | 39.17905 | 23.50244 | 96 ft | 0 kts | 290° |
| 2026-05-09 10:18 | 39.17919 | 23.50245 | 99 ft | 0 kts | 290° |
| 2026-05-09 10:18 | 39.17910 | 23.50267 | 95 ft | 0 kts | 289° |
| 2026-05-09 10:18 | 39.17911 | 23.50248 | 97 ft | 0 kts | 289° |
| 2026-05-09 10:19 | 39.17913 | 23.50241 | 98 ft | 0 kts | 289° |